Time;durP1;ratioP1;P1;durP2;ratioP2;P2;SDS_P1;SDS_P2;PMS_P1;PMS_P2;Temp;Humidity;BMP_temperature;BMP_pressure;BME280_temperature;BME280_humidity;BME280_pressure;Samples;Min_cycle;Max_cycle;Signal;HPM_P1;HPM_P2
2022/01/27 00:00:45;;;;;;;17.20;8.95;;;;;;;2.59;100.00;101519.13;6035781;29;19923;-86
2022/01/27 00:07:09;;;;;;;21.80;9.13;;;;;;;2.71;100.00;101510.25;6048274;29;20056;-86
2022/01/27 00:13:19;;;;;;;17.70;8.70;;;;;;;2.73;100.00;101499.97;6031129;29;20055;-86
2022/01/27 00:21:09;;;;;;;18.67;10.05;;;;;;;2.82;100.00;101502.25;6042160;29;20053;-86
2022/01/27 00:24:11;;;;;;;20.98;9.65;;;;;;;2.71;100.00;101479.59;6044987;29;20053;-86
2022/01/27 00:27:13;;;;;;;23.35;11.65;;;;;;;2.79;100.00;101484.47;6050574;29;20249;-86
2022/01/27 00:30:16;;;;;;;24.95;11.15;;;;;;;2.69;100.00;101470.28;6043043;29;20077;-86
2022/01/27 00:33:17;;;;;;;19.70;10.80;;;;;;;2.69;100.00;101476.25;6033423;29;20049;-86
2022/01/27 00:36:20;;;;;;;22.08;11.48;;;;;;;2.82;100.00;101461.34;6043734;29;20424;-86
2022/01/27 00:39:22;;;;;;;20.17;10.52;;;;;;;2.79;100.00;101474.22;6042006;29;20589;-86
2022/01/27 00:42:26;;;;;;;25.00;11.15;;;;;;;2.88;100.00;101483.31;6045542;29;20056;-86
2022/01/27 00:45:30;;;;;;;20.38;11.30;;;;;;;2.93;100.00;101478.91;6036398;29;20045;-86
2022/01/27 00:48:32;;;;;;;26.52;12.40;;;;;;;2.88;100.00;101483.31;6045170;29;20041;-86
2022/01/27 00:51:37;;;;;;;25.92;12.20;;;;;;;2.82;100.00;101475.84;6052613;29;20052;-86
2022/01/27 00:54:39;;;;;;;27.58;11.80;;;;;;;2.82;100.00;101480.97;6046959;29;20092;-86
2022/01/27 01:00:57;;;;;;;25.92;11.30;;;;;;;2.87;100.00;101453.53;6037236;29;20562;-86
2022/01/27 01:04:02;;;;;;;28.17;12.73;;;;;;;2.83;100.00;101455.34;6045299;29;20135;-86
2022/01/27 01:07:06;;;;;;;25.02;12.77;;;;;;;2.77;100.00;101442.75;6038793;29;20219;-86
2022/01/27 01:17:06;;;;;;;25.38;12.95;;;;;;;2.81;100.00;101434.13;6046783;29;20459;-86
2022/01/27 01:20:37;;;;;;;27.85;13.10;;;;;;;2.77;100.00;101432.53;6039831;29;20048;-86
2022/01/27 01:33:27;;;;;;;23.45;12.23;;;;;;;2.89;100.00;101413.41;6033921;29;20562;-86
2022/01/27 01:36:54;;;;;;;27.27;12.55;;;;;;;2.91;100.00;101421.88;6043482;29;20049;-86
2022/01/27 01:39:56;;;;;;;23.30;11.32;;;;;;;2.88;100.00;101397.25;6043405;29;20191;-86
2022/01/27 01:42:58;;;;;;;26.92;12.73;;;;;;;2.89;100.00;101385.28;6044520;29;20051;-86
2022/01/27 01:46:00;;;;;;;26.30;11.75;;;;;;;2.91;100.00;101394.56;6043639;29;20057;-86
2022/01/27 01:49:08;;;;;;;27.38;12.73;;;;;;;2.95;100.00;101377.41;6054131;29;20135;-86
2022/01/27 01:52:10;;;;;;;25.20;13.20;;;;;;;2.93;100.00;101379.16;6041105;29;20045;-86
2022/01/27 01:55:13;;;;;;;28.58;13.25;;;;;;;2.83;100.00;101367.56;6033193;29;20049;-86
2022/01/27 01:58:15;;;;;;;27.45;13.85;;;;;;;2.90;100.00;101361.38;6025422;29;20050;-86
2022/01/27 02:01:18;;;;;;;28.30;12.45;;;;;;;2.83;100.00;101362.47;6030187;29;20152;-86
2022/01/27 02:04:23;;;;;;;32.42;15.40;;;;;;;2.90;100.00;101349.41;6028198;29;20514;-86
2022/01/27 02:07:35;;;;;;;32.30;14.35;;;;;;;2.88;100.00;101329.91;6024326;29;20222;-86
2022/01/27 02:17:58;;;;;;;28.15;13.60;;;;;;;2.93;100.00;101368.94;6023889;29;20046;-86
2022/01/27 02:20:45;;;;;;;32.53;14.80;;;;;;;2.94;100.00;101309.25;6032535;29;20668;-86
2022/01/27 02:23:46;;;;;;;31.40;14.75;;;;;;;2.93;100.00;101299.91;6032779;29;20574;-86
2022/01/27 02:26:50;;;;;;;28.42;13.90;;;;;;;2.83;100.00;101313.88;6039826;29;20143;-86
2022/01/27 02:29:52;;;;;;;34.30;15.35;;;;;;;2.87;100.00;101315.47;6033545;29;20057;-86
2022/01/27 02:32:54;;;;;;;37.28;17.15;;;;;;;2.93;100.00;101307.56;6027575;29;20400;-86
2022/01/27 02:35:56;;;;;;;37.50;17.38;;;;;;;2.91;100.00;101347.72;6040375;29;20165;-86
2022/01/27 02:38:59;;;;;;;35.70;16.17;;;;;;;2.86;100.00;101324.88;6038273;29;20045;-86
2022/01/27 02:42:19;;;;;;;36.55;17.08;;;;;;;2.86;100.00;101332.53;6047383;29;20120;-86
2022/01/27 02:45:27;;;;;;;44.33;18.20;;;;;;;2.83;100.00;101307.03;6034236;29;20041;-86
2022/01/27 02:48:29;;;;;;;45.28;19.00;;;;;;;2.85;100.00;101317.22;6043361;29;20051;-86
2022/01/27 02:51:33;;;;;;;43.00;20.00;;;;;;;2.85;100.00;101299.34;6049045;29;20114;-86
2022/01/27 02:54:36;;;;;;;45.38;19.92;;;;;;;2.82;100.00;101337.78;6034533;29;20056;-86
2022/01/27 02:57:58;;;;;;;51.00;21.77;;;;;;;2.84;100.00;101311.28;6027531;29;20068;-86
2022/01/27 03:01:04;;;;;;;46.33;21.65;;;;;;;2.79;100.00;101311.44;6038408;29;20049;-86
2022/01/27 03:04:06;;;;;;;45.20;20.80;;;;;;;2.76;100.00;101319.22;6035887;29;20056;-86
2022/01/27 03:07:09;;;;;;;50.08;22.42;;;;;;;2.72;100.00;101275.91;6032209;29;20053;-86
2022/01/27 03:10:11;;;;;;;50.00;21.15;;;;;;;2.71;100.00;101287.03;6022368;29;20054;-86
2022/01/27 03:13:13;;;;;;;44.53;18.55;;;;;;;2.74;100.00;101280.09;6033018;29;20478;-86
2022/01/27 03:16:15;;;;;;;55.05;21.45;;;;;;;2.70;100.00;101291.28;6041377;29;20061;-86
2022/01/27 03:19:17;;;;;;;41.17;18.95;;;;;;;2.70;100.00;101285.34;6041626;29;20041;-86
2022/01/27 03:22:19;;;;;;;43.53;18.15;;;;;;;2.73;100.00;101290.34;6037919;29;20498;-86
2022/01/27 03:25:22;;;;;;;38.88;17.48;;;;;;;2.75;100.00;101276.63;6043431;29;20614;-86
2022/01/27 03:28:27;;;;;;;41.00;18.00;;;;;;;2.72;100.00;101278.47;6041850;29;20044;-86
2022/01/27 03:31:30;;;;;;;43.80;18.75;;;;;;;2.65;100.00;101272.72;6049764;29;20044;-86
2022/01/27 03:34:32;;;;;;;44.67;17.45;;;;;;;2.69;100.00;101284.53;6044926;29;20518;-86
2022/01/27 03:37:35;;;;;;;39.72;16.80;;;;;;;2.70;100.00;101286.19;6041305;29;20053;-86
2022/01/27 03:40:37;;;;;;;37.08;17.83;;;;;;;2.64;100.00;101272.78;6036847;29;20037;-86
2022/01/27 03:43:40;;;;;;;39.10;17.25;;;;;;;2.73;100.00;101263.09;6044872;29;20132;-86
2022/01/27 03:46:41;;;;;;;37.78;17.55;;;;;;;2.71;100.00;101259.75;6052249;29;20048;-86
2022/01/27 03:49:43;;;;;;;39.70;15.48;;;;;;;2.70;100.00;101257.25;6045156;29;20052;-86
2022/01/27 03:52:59;;;;;;;43.80;17.48;;;;;;;2.65;100.00;101238.66;6053724;29;20128;-86
2022/01/27 03:56:01;;;;;;;40.50;18.52;;;;;;;2.68;100.00;101244.50;6050102;29;20563;-86
2022/01/27 03:59:03;;;;;;;40.35;17.83;;;;;;;2.64;100.00;101225.06;6043250;29;20110;-86
2022/01/27 04:02:05;;;;;;;39.97;17.15;;;;;;;2.71;100.00;101233.38;6046697;29;20041;-86
2022/01/27 04:05:08;;;;;;;40.90;18.73;;;;;;;2.65;100.00;101238.66;6040887;29;20053;-86
2022/01/27 04:08:13;;;;;;;37.33;17.52;;;;;;;2.68;100.00;101244.50;6040480;29;20038;-86
2022/01/27 04:11:16;;;;;;;43.35;17.85;;;;;;;2.65;100.00;101211.38;6041862;29;20086;-86
2022/01/27 04:14:32;;;;;;;40.00;18.85;;;;;;;2.62;100.00;101196.16;6047133;29;20060;-86
2022/01/27 04:17:34;;;;;;;42.97;19.02;;;;;;;2.51;100.00;101213.56;6044007;29;20396;-86
2022/01/27 04:20:41;;;;;;;40.40;18.77;;;;;;;2.60;100.00;101215.81;6037516;29;20072;-86
2022/01/27 04:23:43;;;;;;;40.67;17.92;;;;;;;2.63;100.00;101231.03;6044096;29;20060;-86
2022/01/27 04:26:50;;;;;;;45.63;18.88;;;;;;;2.55;100.00;101200.66;6040688;29;20049;-86
2022/01/27 04:29:52;;;;;;;43.40;18.20;;;;;;;2.63;100.00;101220.81;6048462;29;20068;-86
2022/01/27 04:32:57;;;;;;;39.53;17.98;;;;;;;2.63;100.00;101213.16;6046262;29;20121;-86
2022/01/27 04:36:05;;;;;;;39.92;18.92;;;;;;;2.62;100.00;101198.72;6041691;29;20041;-86
2022/01/27 04:39:33;;;;;;;38.60;17.35;;;;;;;2.57;100.00;101175.06;6049641;29;20064;-86
2022/01/27 04:46:25;;;;;;;34.40;16.45;;;;;;;2.53;100.00;101163.25;5991834;29;20057;-86
2022/01/27 04:49:28;;;;;;;43.63;18.73;;;;;;;2.48;100.00;101155.75;5991213;29;20428;-86
2022/01/27 04:52:33;;;;;;;40.90;19.30;;;;;;;2.55;100.00;101139.31;6054748;29;20037;-86
2022/01/27 04:55:36;;;;;;;41.35;19.48;;;;;;;2.52;100.00;101141.16;6048361;29;20549;-86
2022/01/27 04:58:38;;;;;;;39.50;19.38;;;;;;;2.55;100.00;101130.81;6049650;29;20040;-86
2022/01/27 05:01:47;;;;;;;39.92;19.42;;;;;;;2.50;100.00;101145.47;6046634;29;20492;-86
2022/01/27 05:04:50;;;;;;;38.45;18.02;;;;;;;2.51;100.00;101121.59;6037907;29;20653;-86
2022/01/27 05:08:11;;;;;;;45.70;18.10;;;;;;;2.61;100.00;101130.63;6048989;29;20040;-86
2022/01/27 05:14:25;;;;;;;38.38;17.70;;;;;;;2.55;100.00;101126.53;6046924;29;20591;-86
2022/01/27 05:17:27;;;;;;;40.58;18.10;;;;;;;2.56;100.00;101109.50;6034433;29;20041;-86
2022/01/27 05:20:29;;;;;;;41.75;18.67;;;;;;;2.53;100.00;101122.38;6036135;29;20037;-86
2022/01/27 05:23:31;;;;;;;38.97;17.27;;;;;;;2.57;100.00;101113.72;6047857;29;20060;-86
2022/01/27 05:26:33;;;;;;;38.95;18.63;;;;;;;2.53;100.00;101112.97;6039291;29;20085;-86
2022/01/27 05:29:35;;;;;;;37.95;17.27;;;;;;;2.52;100.00;101095.16;6039903;29;20056;-86
2022/01/27 05:32:37;;;;;;;41.45;16.77;;;;;;;2.59;100.00;101074.44;6032560;29;20052;-86
2022/01/27 05:35:39;;;;;;;40.22;18.23;;;;;;;2.52;100.00;101039.78;6038395;29;20045;-86
2022/01/27 05:38:41;;;;;;;42.92;19.40;;;;;;;2.54;100.00;101055.06;6026749;29;20041;-86
2022/01/27 05:41:44;;;;;;;39.67;17.98;;;;;;;2.55;100.00;101039.66;6038581;29;20136;-86
2022/01/27 05:44:46;;;;;;;37.33;17.67;;;;;;;2.52;100.00;101057.66;6036150;29;20060;-86
2022/01/27 05:47:48;;;;;;;40.90;17.10;;;;;;;2.54;100.00;101060.16;6029292;29;20079;-86
2022/01/27 05:50:51;;;;;;;39.40;17.95;;;;;;;2.58;100.00;101042.13;6046485;29;20045;-86
2022/01/27 05:53:53;;;;;;;39.03;19.05;;;;;;;2.61;100.00;101047.97;6057515;29;20372;-86
2022/01/27 05:56:55;;;;;;;37.60;16.90;;;;;;;2.61;100.00;101056.50;6048523;29;20057;-86
2022/01/27 05:59:57;;;;;;;40.33;19.17;;;;;;;2.61;100.00;101037.75;6047035;29;20076;-86
2022/01/27 06:02:59;;;;;;;35.95;16.50;;;;;;;2.65;100.00;101050.38;6046262;29;20582;-86
2022/01/27 06:06:02;;;;;;;40.58;17.83;;;;;;;2.66;100.00;101034.16;6037860;29;20057;-86
2022/01/27 06:09:04;;;;;;;42.58;18.48;;;;;;;2.70;100.00;101022.91;6027020;29;20046;-86
2022/01/27 06:16:37;;;;;;;39.63;18.35;;;;;;;2.74;100.00;101047.47;6012704;29;20692;-86
2022/01/27 06:20:51;;;;;;;33.13;16.65;;;;;;;2.65;100.00;101035.03;6037947;29;20162;-86
2022/01/27 06:34:12;;;;;;;37.63;16.50;;;;;;;2.68;100.00;101021.31;6043142;29;20519;-86
2022/01/27 06:38:26;;;;;;;39.05;17.45;;;;;;;2.79;100.00;101024.28;6047753;29;20045;-86
2022/01/27 06:51:23;;;;;;;37.35;17.27;;;;;;;2.69;100.00;101028.94;6033095;29;20034;-86
2022/01/27 07:03:49;;;;;;;37.80;17.25;;;;;;;2.77;100.00;101014.13;6041268;29;20172;-86
2022/01/27 07:17:06;;;;;;;34.20;16.63;;;;;;;2.77;100.00;100995.41;6040736;29;20053;-86
2022/01/27 07:42:44;;;;;;;39.33;16.10;;;;;;;3.01;100.00;100963.75;6038354;29;20065;-86
2022/01/27 07:51:24;;;;;;;30.27;14.52;;;;;;;3.01;100.00;100950.13;6036156;29;20048;-86
2022/01/27 08:17:55;;;;;;;32.13;13.00;;;;;;;3.19;100.00;100926.34;6044916;29;20057;-86
2022/01/27 08:30:56;;;;;;;30.00;13.48;;;;;;;3.12;100.00;100912.16;6033470;29;20566;-86
2022/01/27 08:39:38;;;;;;;23.80;11.10;;;;;;;3.36;100.00;100901.78;6048829;29;20069;-86
2022/01/27 08:48:48;;;;;;;22.40;10.85;;;;;;;3.42;100.00;100904.91;6049203;29;20061;-86
2022/01/27 09:03:40;;;;;;;17.85;8.52;;;;;;;3.50;100.00;100908.84;6043801;29;20061;-85
2022/01/27 09:12:26;;;;;;;17.80;8.88;;;;;;;3.52;100.00;100887.41;6040587;29;20064;-85
2022/01/27 09:21:20;;;;;;;12.20;6.53;;;;;;;3.57;100.00;100870.13;6038357;29;20052;-86
2022/01/27 09:30:25;;;;;;;10.63;6.30;;;;;;;3.64;100.00;100881.75;6050865;29;20120;-85
2022/01/27 09:34:31;;;;;;;10.90;6.30;;;;;;;3.71;100.00;100879.78;6049171;29;20053;-85
2022/01/27 10:18:11;;;;;;;7.00;4.38;;;;;;;4.10;100.00;100866.88;6036808;29;20068;-88
2022/01/27 10:35:25;;;;;;;10.05;6.15;;;;;;;4.19;100.00;100831.47;6028765;29;20046;-89
2022/01/27 10:39:22;;;;;;;8.55;5.05;;;;;;;4.30;100.00;100835.19;6037678;29;20049;-89
2022/01/27 10:51:40;;;;;;;9.93;6.00;;;;;;;4.40;100.00;100842.44;6040318;29;20045;-88
2022/01/27 10:56:05;;;;;;;8.95;5.32;;;;;;;4.45;100.00;100840.50;6036196;29;20056;-88
2022/01/27 11:17:29;;;;;;;9.50;5.68;;;;;;;4.72;100.00;100839.16;6032177;29;20080;-87
2022/01/27 11:30:14;;;;;;;9.48;6.32;;;;;;;4.84;100.00;100849.69;6041185;29;20801;-87
2022/01/27 11:38:04;;;;;;;11.05;6.15;;;;;;;4.73;100.00;100834.84;6042558;29;20045;-87
2022/01/27 11:42:37;;;;;;;11.07;6.30;;;;;;;4.71;100.00;100816.13;6039217;29;20056;-87
2022/01/27 11:47:18;;;;;;;8.70;5.50;;;;;;;4.67;100.00;100814.63;6050532;29;20135;-87
2022/01/27 11:59:57;;;;;;;7.85;5.10;;;;;;;4.79;100.00;100819.13;6029832;29;20074;-86
2022/01/27 12:17:16;;;;;;;8.65;5.60;;;;;;;5.01;100.00;100818.06;6048807;29;20049;-86
2022/01/27 12:30:37;;;;;;;9.43;5.13;;;;;;;5.25;100.00;100780.03;6055399;29;20056;-86
2022/01/27 12:48:15;;;;;;;11.25;5.38;;;;;;;5.71;100.00;100751.88;6045979;29;20045;-86
2022/01/27 12:56:48;;;;;;;10.90;5.75;;;;;;;5.66;100.00;100764.97;6047450;29;20381;-86
2022/01/27 13:01:23;;;;;;;11.95;6.28;;;;;;;5.91;100.00;100751.59;6045965;29;20052;-86
2022/01/27 13:14:11;;;;;;;11.18;6.32;;;;;;;6.04;100.00;100729.50;6046696;29;20045;-87
2022/01/27 13:18:31;;;;;;;11.02;6.35;;;;;;;6.17;100.00;100747.59;6047354;29;20084;-87
2022/01/27 13:23:10;;;;;;;11.90;6.47;;;;;;;6.18;100.00;100751.00;6047170;29;20096;-86
2022/01/27 13:27:49;;;;;;;9.57;6.00;;;;;;;6.13;100.00;100732.44;6034034;29;20045;-86
2022/01/27 13:31:39;;;;;;;13.45;7.00;;;;;;;6.10;100.00;100722.34;6043645;29;20455;-86
2022/01/27 13:44:18;;;;;;;12.32;7.38;;;;;;;6.00;100.00;100742.59;6048752;29;20052;-86
2022/01/27 13:56:13;;;;;;;11.10;6.13;;;;;;;5.89;100.00;100721.78;6042343;29;20068;-86
2022/01/27 14:08:45;;;;;;;5.00;3.58;;;;;;;6.13;100.00;100735.84;6041503;29;20165;-85
2022/01/27 14:13:17;;;;;;;6.57;4.03;;;;;;;6.27;100.00;100717.06;6043423;29;20041;-85
2022/01/27 14:21:07;;;;;;;5.15;3.90;;;;;;;6.14;100.00;100719.50;6043853;29;20089;-85
2022/01/27 14:24:13;;;;;;;7.03;4.80;;;;;;;6.09;100.00;100726.66;6044748;29;20049;-85
2022/01/27 14:27:15;;;;;;;5.35;3.60;;;;;;;6.15;100.00;100716.00;6047363;29;20527;-85
2022/01/27 14:30:17;;;;;;;6.38;3.88;;;;;;;6.18;100.00;100704.72;6047245;29;20049;-85
2022/01/27 14:33:34;;;;;;;5.03;3.85;;;;;;;6.14;100.00;100703.28;6047634;29;20048;-85
2022/01/27 14:36:41;;;;;;;5.65;3.90;;;;;;;6.12;100.00;100705.91;6044527;29;20567;-85
2022/01/27 14:39:46;;;;;;;6.70;3.95;;;;;;;6.20;100.00;100708.88;6050217;29;20041;-85
2022/01/27 14:42:48;;;;;;;5.95;4.30;;;;;;;6.41;100.00;100699.09;6046093;29;20509;-85
2022/01/27 14:45:51;;;;;;;8.13;4.35;;;;;;;6.39;100.00;100700.09;6045760;29;20136;-85
2022/01/27 14:49:11;;;;;;;7.57;4.00;;;;;;;6.35;100.00;100704.56;6037355;29;20061;-85
2022/01/27 14:52:15;;;;;;;7.93;4.50;;;;;;;6.32;100.00;100729.66;6050049;29;20044;-85
2022/01/27 14:55:17;;;;;;;8.88;4.60;;;;;;;6.45;100.00;100717.72;6050759;29;20056;-85
2022/01/27 14:58:19;;;;;;;8.05;4.57;;;;;;;6.55;100.00;100698.25;6029822;29;20042;-86
2022/01/27 15:01:24;;;;;;;7.40;3.83;;;;;;;6.66;100.00;100719.03;6037764;29;20393;-85
2022/01/27 15:04:27;;;;;;;6.57;4.03;;;;;;;6.73;100.00;100716.09;6049987;29;20049;-85
2022/01/27 15:07:28;;;;;;;6.32;3.22;;;;;;;6.67;100.00;100728.41;6046436;29;20044;-86
2022/01/27 15:10:30;;;;;;;5.43;3.15;;;;;;;6.54;100.00;100717.19;6048924;29;20565;-85
2022/01/27 15:13:34;;;;;;;6.65;3.45;;;;;;;6.55;100.00;100723.16;6047860;29;20048;-85
2022/01/27 15:20:17;;;;;;;9.35;3.60;;;;;;;6.62;100.00;100724.47;6051901;29;20049;-85
2022/01/27 15:23:21;;;;;;;9.05;3.72;;;;;;;6.58;100.00;100723.78;6055387;29;20060;-85
2022/01/27 15:26:25;;;;;;;8.88;3.63;;;;;;;6.58;100.00;100728.13;6048097;29;20050;-85
2022/01/27 15:29:30;;;;;;;10.63;4.05;;;;;;;6.59;100.00;100719.50;6049749;29;20045;-85
2022/01/27 15:32:32;;;;;;;8.38;4.15;;;;;;;6.61;100.00;100722.81;6047154;29;20102;-85
2022/01/27 15:35:34;;;;;;;11.50;4.68;;;;;;;6.60;100.00;100739.97;6052196;29;20053;-90
2022/01/27 15:38:37;;;;;;;11.90;5.18;;;;;;;6.23;100.00;100762.66;6051348;29;20410;-90
2022/01/27 15:41:39;;;;;;;8.23;5.15;;;;;;;5.99;100.00;100736.63;6052539;29;20041;-90
2022/01/27 15:44:44;;;;;;;11.20;5.10;;;;;;;5.95;100.00;100742.84;6049863;29;20506;-90
2022/01/27 15:47:47;;;;;;;9.65;5.00;;;;;;;5.82;100.00;100734.97;6045069;29;20108;-90
2022/01/27 15:50:50;;;;;;;15.00;5.95;;;;;;;5.88;100.00;100736.34;6047828;29;20037;-90
2022/01/27 15:53:53;;;;;;;8.50;4.55;;;;;;;5.87;100.00;100747.56;6042629;29;20044;-89
2022/01/27 15:56:55;;;;;;;9.98;5.55;;;;;;;5.85;100.00;100753.69;6049678;29;20148;-92
2022/01/27 15:59:58;;;;;;;14.48;4.70;;;;;;;5.73;100.00;100760.34;6043967;29;20056;-91
2022/01/27 16:03:02;;;;;;;6.68;4.05;;;;;;;5.67;100.00;100758.13;6026160;29;20057;-92
2022/01/27 16:06:11;;;;;;;7.72;2.85;;;;;;;5.65;100.00;100754.81;6039928;29;20056;-91
2022/01/27 16:09:47;;;;;;;7.82;2.10;;;;;;;5.49;100.00;100789.00;6045632;29;20049;-91
2022/01/27 16:13:02;;;;;;;5.15;1.60;;;;;;;5.33;100.00;100798.44;6041733;29;20065;-91
2022/01/27 16:16:04;;;;;;;3.10;0.82;;;;;;;5.01;100.00;100741.09;6032419;29;20491;-91
2022/01/27 16:19:13;;;;;;;2.58;0.77;;;;;;;4.78;100.00;100758.50;6039665;29;20053;-91
2022/01/27 16:22:16;;;;;;;3.60;1.25;;;;;;;4.69;100.00;100739.28;6042921;29;20128;-92
2022/01/27 16:25:18;;;;;;;5.10;1.67;;;;;;;4.59;100.00;100740.66;6044462;29;20045;-91
2022/01/27 16:28:21;;;;;;;3.63;1.13;;;;;;;4.53;100.00;100730.72;6045950;29;20052;-89
2022/01/27 16:31:23;;;;;;;4.45;1.20;;;;;;;4.59;100.00;100745.78;6042899;29;20057;-89
2022/01/27 16:34:25;;;;;;;4.00;1.30;;;;;;;4.52;100.00;100745.28;6043774;29;20100;-90
2022/01/27 16:37:27;;;;;;;4.60;1.33;;;;;;;4.60;100.00;100732.06;6041260;29;20194;-89
2022/01/27 16:40:30;;;;;;;2.67;1.67;;;;;;;4.62;100.00;100737.09;6042663;29;20041;-90
2022/01/27 16:43:33;;;;;;;4.88;1.15;;;;;;;4.70;100.00;100737.56;6049463;29;20037;-91
2022/01/27 16:46:35;;;;;;;5.95;1.33;;;;;;;4.71;100.00;100744.34;6046262;29;20040;-90
2022/01/27 16:49:38;;;;;;;4.50;1.13;;;;;;;4.60;100.00;100738.94;6040805;29;20049;-91
2022/01/27 16:52:40;;;;;;;4.90;1.20;;;;;;;4.57;100.00;100749.31;6050557;29;20068;-90
2022/01/27 16:55:44;;;;;;;3.50;1.10;;;;;;;4.58;100.00;100736.44;6049440;29;20053;-91
2022/01/27 16:58:53;;;;;;;8.15;1.30;;;;;;;4.56;100.00;100734.84;6047570;29;20045;-91
2022/01/27 17:02:06;;;;;;;4.40;1.35;;;;;;;4.46;100.00;100737.88;6041823;29;20037;-91
2022/01/27 17:05:08;;;;;;;13.70;2.15;;;;;;;4.48;100.00;100751.44;6037582;29;20163;-92
2022/01/27 17:08:11;;;;;;;4.50;1.40;;;;;;;4.58;100.00;100779.19;6044590;29;20053;-90
2022/01/27 17:11:13;;;;;;;5.13;1.80;;;;;;;4.76;100.00;100762.88;6048692;29;20521;-91
2022/01/27 17:14:15;;;;;;;6.53;1.40;;;;;;;4.81;100.00;100781.41;6030601;29;20659;-90
2022/01/27 17:17:19;;;;;;;5.43;1.38;;;;;;;4.81;100.00;100771.16;6044962;29;20041;-91
2022/01/27 17:20:25;;;;;;;5.55;1.48;;;;;;;4.78;100.00;100779.03;6044764;29;20041;-90
2022/01/27 17:23:27;;;;;;;3.42;1.30;;;;;;;4.70;100.00;100769.16;6041405;29;20052;-90
2022/01/27 17:26:30;;;;;;;4.07;1.73;;;;;;;4.59;100.00;100775.72;6033848;29;20566;-90
2022/01/27 17:29:32;;;;;;;18.33;2.22;;;;;;;4.58;100.00;100774.91;6043136;29;20073;-90
2022/01/27 17:32:36;;;;;;;5.18;1.20;;;;;;;4.45;100.00;100794.38;6045299;29;20041;-90
2022/01/27 17:35:39;;;;;;;5.68;1.48;;;;;;;4.54;100.00;100794.72;6043387;29;20052;-89
2022/01/27 17:38:41;;;;;;;4.85;1.38;;;;;;;4.47;100.00;100797.66;6042029;29;20041;-88
2022/01/27 17:41:43;;;;;;;6.95;1.58;;;;;;;4.42;100.00;100797.06;6044826;29;20048;-89
2022/01/27 17:44:47;;;;;;;5.82;1.52;;;;;;;4.44;100.00;100797.81;6044488;29;20197;-89
2022/01/27 17:47:52;;;;;;;6.72;1.52;;;;;;;4.51;100.00;100800.00;6040111;29;20049;-89
2022/01/27 17:50:54;;;;;;;2.65;1.30;;;;;;;4.43;100.00;100816.66;6041892;29;20048;-88
2022/01/27 17:53:55;;;;;;;6.43;1.27;;;;;;;4.51;100.00;100805.13;6053730;29;20500;-88
2022/01/27 17:56:59;;;;;;;3.42;1.33;;;;;;;4.44;100.00;100821.69;6045062;29;20049;-88
2022/01/27 18:00:05;;;;;;;4.50;1.15;;;;;;;4.55;100.00;100816.06;6041709;29;20096;-88
2022/01/27 18:03:12;;;;;;;9.07;1.70;;;;;;;4.68;100.00;100829.09;6037643;29;20057;-88
2022/01/27 18:06:15;;;;;;;5.28;1.63;;;;;;;4.81;100.00;100840.41;6037991;29;21381;-88
2022/01/27 18:09:17;;;;;;;9.00;2.17;;;;;;;4.79;100.00;100846.53;6041038;29;20499;-89
2022/01/27 18:12:19;;;;;;;5.57;1.70;;;;;;;4.76;100.00;100880.84;6043141;29;20240;-89
2022/01/27 18:15:23;;;;;;;6.72;2.65;;;;;;;4.53;100.00;100882.78;6038213;29;20426;-89
2022/01/27 18:18:26;;;;;;;8.43;1.65;;;;;;;4.36;100.00;100900.69;6057693;29;20176;-91
2022/01/27 18:21:28;;;;;;;8.88;2.25;;;;;;;4.20;100.00;100892.06;6041932;29;20052;-91
2022/01/27 18:24:30;;;;;;;5.05;1.20;;;;;;;3.88;100.00;100890.09;6040730;29;20505;-91
2022/01/27 18:27:33;;;;;;;11.60;1.10;;;;;;;3.60;100.00;100885.38;6043145;29;20762;-89
2022/01/27 18:30:37;;;;;;;7.47;1.25;;;;;;;3.49;100.00;100886.75;6039006;29;20521;-90
2022/01/27 18:33:41;;;;;;;4.50;2.05;;;;;;;3.47;100.00;100909.00;6042098;29;20097;-89
2022/01/27 18:36:49;;;;;;;8.23;1.13;;;;;;;3.48;100.00;100903.81;6046059;29;20049;-90
2022/01/27 18:39:51;;;;;;;8.55;1.23;;;;;;;3.43;100.00;100901.47;6040283;29;20056;-89
2022/01/27 18:42:54;;;;;;;4.20;1.50;;;;;;;3.44;100.00;100920.19;6041054;29;20056;-90
2022/01/27 18:45:55;;;;;;;5.10;1.63;;;;;;;3.37;100.00;100908.56;6038966;29;20037;-90
2022/01/27 18:49:04;;;;;;;7.88;2.65;;;;;;;3.40;100.00;100895.63;6043703;29;20044;-91
2022/01/27 18:52:10;;;;;;;14.38;1.92;;;;;;;3.27;100.00;100891.94;6042838;29;20041;-91
2022/01/27 18:55:13;;;;;;;8.20;2.05;;;;;;;3.17;100.00;100900.00;6047989;29;20044;-91
2022/01/27 18:58:15;;;;;;;15.32;3.05;;;;;;;3.22;100.00;100902.38;6039455;29;20499;-91
2022/01/27 19:01:18;;;;;;;9.02;1.90;;;;;;;3.29;100.00;100898.66;6055563;29;20040;-92
2022/01/27 19:04:20;;;;;;;7.55;1.55;;;;;;;3.42;100.00;100904.06;6048629;29;20495;-91
2022/01/27 19:07:22;;;;;;;10.77;2.17;;;;;;;3.40;100.00;100896.47;6052303;29;20053;-91
2022/01/27 19:10:28;;;;;;;9.35;2.05;;;;;;;3.43;100.00;100900.63;6053038;29;20522;-92
2022/01/27 19:13:30;;;;;;;12.40;2.10;;;;;;;3.48;100.00;100913.22;6053785;29;20061;-91
2022/01/27 19:16:33;;;;;;;10.48;2.13;;;;;;;3.62;100.00;100910.88;6038601;29;20049;-92
2022/01/27 19:19:38;;;;;;;7.20;1.75;;;;;;;3.78;100.00;100905.94;6048160;29;20113;-92
2022/01/27 19:22:41;;;;;;;23.20;3.22;;;;;;;3.94;100.00;100908.63;6046910;29;20140;-91
2022/01/27 19:25:46;;;;;;;12.45;2.33;;;;;;;4.05;100.00;100914.94;6038808;29;20064;-92
2022/01/27 19:28:53;;;;;;;12.15;2.22;;;;;;;4.22;100.00;100915.88;6033361;29;20053;-91
2022/01/27 19:32:03;;;;;;;10.05;2.05;;;;;;;4.15;100.00;100904.25;6040365;29;20087;-91
2022/01/27 19:35:08;;;;;;;12.23;1.67;;;;;;;4.17;100.00;100922.94;6036096;29;20534;-90
2022/01/27 19:38:11;;;;;;;7.95;1.70;;;;;;;4.13;100.00;100908.63;6038022;29;20048;-90
2022/01/27 19:41:18;;;;;;;10.13;1.60;;;;;;;4.13;100.00;100926.56;6034355;29;20045;-90
2022/01/27 19:44:22;;;;;;;12.50;2.20;;;;;;;4.20;100.00;100926.22;6022494;29;20058;-91
2022/01/27 19:47:26;;;;;;;9.57;1.83;;;;;;;4.32;100.00;100919.66;6036981;29;20050;-91
2022/01/27 19:50:28;;;;;;;11.48;2.00;;;;;;;4.25;100.00;100916.59;6038921;29;20124;-92
2022/01/27 19:53:30;;;;;;;10.77;1.90;;;;;;;4.23;100.00;100922.69;6041608;29;20808;-92
2022/01/27 19:56:33;;;;;;;11.13;2.08;;;;;;;4.16;100.00;100936.66;6029613;29;20790;-91
2022/01/27 19:59:37;;;;;;;7.70;1.98;;;;;;;3.98;100.00;100946.03;6047304;29;20101;-91
2022/01/27 20:02:49;;;;;;;5.95;1.88;;;;;;;3.89;100.00;100947.25;6031796;29;20487;-92
2022/01/27 20:05:52;;;;;;;8.27;1.83;;;;;;;3.69;100.00;100937.06;6045638;29;20463;-91
2022/01/27 20:08:54;;;;;;;5.40;1.05;;;;;;;3.49;100.00;100913.16;6042908;29;20515;-91
2022/01/27 20:11:58;;;;;;;4.75;1.00;;;;;;;3.32;100.00;100920.72;6046171;29;20065;-91
2022/01/27 20:15:00;;;;;;;3.20;1.25;;;;;;;3.31;100.00;100948.03;6049246;29;20845;-91
2022/01/27 20:18:03;;;;;;;6.72;2.17;;;;;;;3.16;100.00;100979.38;6045624;29;20051;-91
2022/01/27 20:21:06;;;;;;;4.30;1.13;;;;;;;2.97;100.00;100972.44;6042896;29;20053;-92
2022/01/27 20:24:08;;;;;;;4.53;1.13;;;;;;;2.83;100.00;100955.97;6052444;29;20926;-91
2022/01/27 20:27:10;;;;;;;3.33;1.20;;;;;;;2.69;100.00;100948.88;6046272;29;20053;-90
2022/01/27 20:30:14;;;;;;;5.40;1.20;;;;;;;2.51;100.00;100955.50;6044248;29;20041;-90
2022/01/27 20:33:17;;;;;;;8.63;1.67;;;;;;;2.50;100.00;100962.34;6046757;29;20045;-90
2022/01/27 20:36:19;;;;;;;3.08;1.05;;;;;;;2.69;100.00;100965.03;6023427;29;20056;-89
2022/01/27 20:39:21;;;;;;;4.63;1.27;;;;;;;2.72;100.00;100956.41;6043328;29;20129;-89
2022/01/27 20:42:26;;;;;;;4.72;1.10;;;;;;;2.76;100.00;100975.84;6042372;29;20041;-90
2022/01/27 20:45:28;;;;;;;6.18;1.40;;;;;;;2.78;100.00;100980.00;6044061;29;20045;-89
2022/01/27 20:48:32;;;;;;;6.03;1.00;;;;;;;2.75;100.00;100972.44;6038416;29;20053;-91
2022/01/27 20:51:35;;;;;;;5.68;1.08;;;;;;;2.78;100.00;100992.78;6046310;29;20045;-90